Time;durP1;ratioP1;P1;durP2;ratioP2;P2;SDS_P1;SDS_P2;PMS_P1;PMS_P2;Temp;Humidity;BMP_temperature;BMP_pressure;BME280_temperature;BME280_humidity;BME280_pressure;Samples;Min_cycle;Max_cycle;Signal;HPM_P1;HPM_P2
2024/01/29 00:01:42;;;;;;;;;;;-1.00;63.60;;;;;;5070365;28;20578;-73
2024/01/29 00:04:09;;;;;;;6.13;3.75;;;-1.00;63.70;;;;;;5070423;28;20392;-74
2024/01/29 00:06:34;;;;;;;;;;;-1.00;63.90;;;;;;5072636;28;20043;-73
2024/01/29 00:09:00;;;;;;;11.48;3.88;;;-1.00;64.70;;;;;;5071376;28;19917;-74
2024/01/29 00:11:27;;;;;;;11.48;4.95;;;-1.10;64.10;;;;;;5069617;28;20063;-73
2024/01/29 00:13:53;;;;;;;6.18;3.47;;;-1.10;64.30;;;;;;5071922;28;20024;-73
2024/01/29 00:16:19;;;;;;;6.93;3.58;;;-1.00;64.20;;;;;;5071965;28;20094;-73
2024/01/29 00:18:45;;;;;;;7.28;4.10;;;-1.10;63.90;;;;;;5053631;28;20043;-73
2024/01/29 00:21:12;;;;;;;11.07;3.25;;;-1.20;64.20;;;;;;5069905;28;20097;-73
2024/01/29 00:23:38;;;;;;;4.55;2.25;;;-1.20;64.10;;;;;;5070348;28;20024;-74
2024/01/29 00:26:04;;;;;;;8.48;4.13;;;-1.20;64.10;;;;;;5070155;28;20044;-73
2024/01/29 00:28:32;;;;;;;9.43;4.68;;;-1.20;64.20;;;;;;5069860;28;20550;-74
2024/01/29 00:30:58;;;;;;;11.02;4.20;;;-1.20;64.20;;;;;;5070774;28;20040;-74
2024/01/29 00:33:24;;;;;;;3.08;2.13;;;-1.20;64.20;;;;;;5071476;28;20029;-73
2024/01/29 00:35:50;;;;;;;4.43;2.83;;;-1.20;64.20;;;;;;5071357;28;20052;-73
2024/01/29 00:38:16;;;;;;;3.10;1.15;;;-1.20;64.40;;;;;;5070213;28;20032;-74
2024/01/29 00:40:42;;;;;;;5.53;2.38;;;-1.20;64.40;;;;;;5069290;28;20037;-73
2024/01/29 00:43:08;;;;;;;2.00;1.30;;;-1.30;64.30;;;;;;5071812;28;20043;-73
2024/01/29 00:45:34;;;;;;;3.17;1.50;;;-1.30;64.30;;;;;;5053724;28;20152;-73
2024/01/29 00:48:00;;;;;;;1.83;1.55;;;-1.30;64.60;;;;;;5071254;28;20048;-73
2024/01/29 00:50:26;;;;;;;3.95;2.17;;;-1.30;64.60;;;;;;5071139;28;20500;-74
2024/01/29 00:52:52;;;;;;;3.25;1.27;;;-1.30;64.90;;;;;;5071604;28;20393;-74
2024/01/29 00:55:18;;;;;;;1.35;0.98;;;-1.30;65.20;;;;;;5071883;28;20111;-74
2024/01/29 00:57:44;;;;;;;3.08;2.47;;;-1.30;65.10;;;;;;5071648;28;20040;-74
2024/01/29 01:00:11;;;;;;;3.67;1.88;;;-1.30;65.00;;;;;;5071047;28;20170;-73
2024/01/29 01:02:37;;;;;;;1.75;1.30;;;-1.30;64.60;;;;;;5071877;28;20128;-74
2024/01/29 01:05:03;;;;;;;3.40;1.45;;;-1.30;64.60;;;;;;5053549;28;20041;-74
2024/01/29 01:07:30;;;;;;;4.30;3.10;;;-1.30;64.00;;;;;;5070919;28;20048;-73
2024/01/29 01:09:56;;;;;;;4.55;2.65;;;-1.30;64.50;;;;;;5069572;28;20051;-73
2024/01/29 01:12:22;;;;;;;2.42;1.52;;;-1.30;65.00;;;;;;5070309;28;20033;-73
2024/01/29 01:14:48;;;;;;;4.50;2.40;;;-1.30;64.80;;;;;;5071001;28;20035;-73
2024/01/29 01:17:14;;;;;;;5.05;3.58;;;-1.40;64.60;;;;;;5069747;28;20044;-74
2024/01/29 01:19:40;;;;;;;6.15;2.80;;;-1.40;65.10;;;;;;5070482;28;20037;-74
2024/01/29 01:22:06;;;;;;;7.75;3.15;;;-1.40;65.00;;;;;;5070607;28;20505;-73
2024/01/29 01:24:32;;;;;;;7.40;2.22;;;-1.40;65.10;;;;;;5070545;28;20033;-74
2024/01/29 01:26:58;;;;;;;6.20;3.65;;;-1.40;65.00;;;;;;5070311;28;20064;-73
2024/01/29 01:29:24;;;;;;;4.28;2.40;;;-1.50;64.60;;;;;;5070132;28;20523;-74
2024/01/29 01:31:50;;;;;;;2.78;1.75;;;-1.50;64.20;;;;;;5069619;28;20463;-74
2024/01/29 01:34:16;;;;;;;5.47;3.22;;;-1.60;63.80;;;;;;5070445;28;20082;-73
2024/01/29 01:36:42;;;;;;;9.15;4.80;;;-1.60;64.00;;;;;;5069848;28;20036;-73
2024/01/29 01:39:08;;;;;;;3.75;3.30;;;-1.60;64.00;;;;;;5070614;28;20033;-74
2024/01/29 01:41:34;;;;;;;4.47;1.55;;;-1.70;64.10;;;;;;5068854;28;20036;-73
2024/01/29 01:44:00;;;;;;;5.45;3.53;;;-1.60;64.00;;;;;;5069457;28;20048;-73
2024/01/29 01:46:27;;;;;;;4.15;3.05;;;-1.70;64.10;;;;;;5070374;28;20041;-73
2024/01/29 01:48:56;;;;;;;5.07;3.55;;;-1.70;64.00;;;;;;5069144;28;20039;-73
2024/01/29 01:51:23;;;;;;;5.68;3.35;;;-1.70;64.10;;;;;;5051949;28;20106;-74
2024/01/29 01:53:53;;;;;;;8.07;4.22;;;-1.80;64.00;;;;;;5074681;28;20059;-74
2024/01/29 01:56:20;;;;;;;6.72;2.67;;;-1.80;64.10;;;;;;5057075;28;20036;-74
2024/01/29 01:58:46;;;;;;;6.45;3.10;;;-1.80;64.60;;;;;;5073696;28;20047;-74
2024/01/29 02:01:31;;;;;;;;;;;-1.80;64.70;;;;;;5073185;28;20164;-73
2024/01/29 02:03:58;;;;;;;4.85;1.55;;;-1.90;64.50;;;;;;5073248;28;19916;-73
2024/01/29 02:06:25;;;;;;;6.43;2.30;;;-1.80;64.50;;;;;;5073702;28;20367;-73
2024/01/29 02:08:51;;;;;;;2.78;1.23;;;-1.90;64.00;;;;;;5073463;28;20119;-73
2024/01/29 02:11:17;;;;;;;1.48;1.25;;;-1.90;64.60;;;;;;5056021;28;20044;-74
2024/01/29 02:13:43;;;;;;;2.90;2.15;;;-1.90;64.60;;;;;;5074941;28;20485;-74
2024/01/29 02:16:09;;;;;;;2.35;1.65;;;-1.90;64.70;;;;;;5073385;28;20106;-73
2024/01/29 02:18:35;;;;;;;1.98;0.88;;;-1.90;64.90;;;;;;5074191;28;20078;-74
2024/01/29 02:21:01;;;;;;;3.50;1.48;;;-2.00;65.00;;;;;;5073559;28;20088;-73
2024/01/29 02:23:27;;;;;;;1.65;1.35;;;-1.90;65.20;;;;;;5074299;28;20037;-73
2024/01/29 02:25:53;;;;;;;1.27;1.02;;;-2.00;64.50;;;;;;5074679;28;20435;-73
2024/01/29 02:28:20;;;;;;;4.32;2.45;;;-1.90;65.10;;;;;;5073168;28;20028;-74
2024/01/29 02:30:46;;;;;;;;;;;-2.00;65.00;;;;;;5073688;28;20041;-74
2024/01/29 02:33:12;;;;;;;2.65;0.85;;;-2.00;65.20;;;;;;5073678;28;19958;-73
2024/01/29 02:35:38;;;;;;;4.75;2.50;;;-2.00;65.30;;;;;;5072151;28;20077;-73
2024/01/29 02:38:04;;;;;;;2.83;1.38;;;-2.00;65.40;;;;;;5073523;28;20043;-73
2024/01/29 02:40:30;;;;;;;3.45;2.53;;;-2.00;65.20;;;;;;5072876;28;20237;-74
2024/01/29 02:42:56;;;;;;;2.97;1.85;;;-2.00;65.60;;;;;;5072094;28;20028;-74
2024/01/29 02:45:22;;;;;;;14.68;4.28;;;-2.00;65.60;;;;;;5074085;28;20058;-74
2024/01/29 02:47:48;;;;;;;3.05;2.10;;;-2.10;65.60;;;;;;5072229;28;20029;-73
2024/01/29 02:50:14;;;;;;;3.22;2.30;;;-2.10;65.20;;;;;;5072926;28;20079;-74
2024/01/29 02:52:40;;;;;;;5.30;1.38;;;-2.20;64.80;;;;;;5073619;28;20104;-73
2024/01/29 02:55:07;;;;;;;20.90;3.80;;;-2.20;64.60;;;;;;5072463;28;20132;-74
2024/01/29 02:57:34;;;;;;;3.88;2.75;;;-2.40;64.30;;;;;;5072516;28;20029;-74
2024/01/29 03:00:00;;;;;;;2.95;1.88;;;-2.30;64.30;;;;;;5072323;28;20047;-73
2024/01/29 03:02:26;;;;;;;7.20;4.97;;;-2.30;65.10;;;;;;5071897;28;20493;-74
2024/01/29 03:04:52;;;;;;;10.05;4.00;;;-2.30;65.00;;;;;;5071251;28;20037;-74
2024/01/29 03:07:18;;;;;;;3.33;1.85;;;-2.30;65.00;;;;;;5073623;28;20440;-73
2024/01/29 03:09:44;;;;;;;3.42;1.98;;;-2.40;65.30;;;;;;5072351;28;20039;-74
2024/01/29 03:12:10;;;;;;;4.72;2.50;;;-2.30;65.20;;;;;;5071611;28;20238;-73
2024/01/29 03:14:37;;;;;;;5.55;2.97;;;-2.40;65.30;;;;;;5073649;28;20086;-74
2024/01/29 03:17:04;;;;;;;5.07;2.15;;;-2.40;65.40;;;;;;5071980;28;20451;-73
2024/01/29 03:19:29;;;;;;;9.80;2.53;;;-2.50;65.90;;;;;;5071441;28;20028;-74
2024/01/29 03:21:56;;;;;;;4.30;1.48;;;-2.50;65.80;;;;;;5071885;28;20044;-73
2024/01/29 03:24:22;;;;;;;5.18;2.55;;;-2.50;65.70;;;;;;5072755;28;20024;-73
2024/01/29 03:26:48;;;;;;;3.92;2.33;;;-2.60;65.70;;;;;;5072657;28;20032;-74
2024/01/29 03:29:14;;;;;;;3.20;1.98;;;-2.50;65.70;;;;;;5071800;28;20028;-74
2024/01/29 03:31:40;;;;;;;6.63;3.05;;;-2.60;66.10;;;;;;5071180;28;20041;-73
2024/01/29 03:34:06;;;;;;;3.78;2.65;;;-2.60;65.90;;;;;;5071370;28;20434;-72
2024/01/29 03:36:32;;;;;;;5.47;1.55;;;-2.50;65.80;;;;;;5072796;28;20044;-73
2024/01/29 03:38:58;;;;;;;9.95;4.00;;;-2.50;65.60;;;;;;5071246;28;20037;-73
2024/01/29 03:41:24;;;;;;;4.47;2.50;;;-2.50;65.50;;;;;;5054084;28;20049;-73
2024/01/29 03:43:50;;;;;;;3.28;2.72;;;-2.50;65.70;;;;;;5071932;28;20035;-74
2024/01/29 03:46:16;;;;;;;6.15;3.33;;;-2.60;65.50;;;;;;5054940;28;20048;-74
2024/01/29 03:48:42;;;;;;;4.10;1.83;;;-2.60;65.40;;;;;;5072711;28;20036;-73
2024/01/29 03:51:09;;;;;;;5.32;3.15;;;-2.60;65.30;;;;;;5070880;28;20054;-73
2024/01/29 03:53:35;;;;;;;4.78;1.73;;;-2.60;65.20;;;;;;5054913;28;20033;-73
2024/01/29 03:56:01;;;;;;;;;;;-2.60;65.20;;;;;;5073185;28;20547;-73
2024/01/29 03:58:27;;;;;;;2.15;1.75;;;-2.60;65.50;;;;;;5071072;28;19916;-73
2024/01/29 04:00:53;;;;;;;1.70;1.08;;;-2.60;65.30;;;;;;5069857;28;20052;-73
2024/01/29 04:03:20;;;;;;;6.40;2.33;;;-2.70;65.70;;;;;;5070914;28;20031;-73
2024/01/29 04:05:46;;;;;;;;;;;-2.60;65.50;;;;;;5070813;28;20048;-73
2024/01/29 04:08:12;;;;;;;2.67;1.55;;;-2.60;65.40;;;;;;5071834;28;20381;-73
2024/01/29 04:10:38;;;;;;;7.50;1.30;;;-2.70;65.50;;;;;;5070807;28;20475;-74
2024/01/29 04:13:04;;;;;;;2.47;1.10;;;-2.70;65.90;;;;;;5071745;28;20396;-73
2024/01/29 04:15:30;;;;;;;;;;;-2.70;66.10;;;;;;5072149;28;20060;-73
2024/01/29 04:17:56;;;;;;;2.85;1.35;;;-2.80;66.00;;;;;;5070324;28;20320;-73
2024/01/29 04:20:23;;;;;;;4.55;2.53;;;-2.80;66.00;;;;;;5069854;28;20029;-73
2024/01/29 04:22:49;;;;;;;3.63;2.97;;;-2.80;66.10;;;;;;5070348;28;20067;-73
2024/01/29 04:25:16;;;;;;;2.97;2.10;;;-2.70;66.50;;;;;;5071418;28;20074;-73
2024/01/29 04:27:42;;;;;;;2.92;1.35;;;-2.70;66.50;;;;;;5071283;28;20029;-73
2024/01/29 04:30:09;;;;;;;15.85;3.65;;;-2.70;66.50;;;;;;5069240;28;20078;-73
2024/01/29 04:32:35;;;;;;;7.53;2.45;;;-2.70;66.50;;;;;;5070189;28;20071;-73
2024/01/29 04:35:01;;;;;;;4.25;2.03;;;-2.70;66.50;;;;;;5053085;28;20523;-73
2024/01/29 04:37:27;;;;;;;6.20;3.45;;;-2.70;66.70;;;;;;5053412;28;20029;-73
2024/01/29 04:39:53;;;;;;;4.03;2.28;;;-2.80;66.70;;;;;;5071936;28;20056;-73
2024/01/29 04:42:19;;;;;;;5.38;2.40;;;-2.70;66.80;;;;;;5069617;28;20558;-73
2024/01/29 04:44:45;;;;;;;15.13;4.63;;;-2.70;66.70;;;;;;5071236;28;20112;-73
2024/01/29 04:47:11;;;;;;;6.22;3.47;;;-2.80;66.70;;;;;;5071268;28;20060;-73
2024/01/29 04:49:37;;;;;;;4.20;3.08;;;-2.70;66.60;;;;;;5071434;28;20032;-73
2024/01/29 04:52:03;;;;;;;3.35;1.55;;;-2.80;66.40;;;;;;5069476;28;20035;-73
2024/01/29 04:54:30;;;;;;;3.45;1.75;;;-2.70;66.40;;;;;;5071374;28;20036;-73
2024/01/29 04:56:56;;;;;;;4.97;3.38;;;-2.80;66.50;;;;;;5071084;28;20370;-73
2024/01/29 04:59:22;;;;;;;15.50;2.35;;;-2.80;66.60;;;;;;5069891;28;20033;-73
2024/01/29 05:01:48;;;;;;;4.72;3.05;;;-2.80;66.90;;;;;;5069127;28;20044;-73
2024/01/29 05:04:14;;;;;;;8.82;6.50;;;-2.90;67.10;;;;;;5071117;28;20036;-73
2024/01/29 05:06:40;;;;;;;12.80;6.50;;;-2.80;66.90;;;;;;5069823;28;20048;-73
2024/01/29 05:09:09;;;;;;;;;;;-2.90;66.50;;;;;;5071432;28;20032;-73
2024/01/29 05:11:37;;;;;;;5.15;3.78;;;-3.00;66.10;;;;;;5070170;28;19931;-73
2024/01/29 05:14:03;;;;;;;7.75;3.67;;;-3.00;66.10;;;;;;5071146;28;20116;-73
2024/01/29 05:16:29;;;;;;;5.90;2.65;;;-3.00;66.10;;;;;;5071038;28;20037;-73
2024/01/29 05:18:55;;;;;;;;;;;-3.00;66.00;;;;;;5070216;28;20505;-73
2024/01/29 05:21:21;;;;;;;2.90;1.63;;;-3.10;65.80;;;;;;5070077;28;19930;-73
2024/01/29 05:23:47;;;;;;;7.63;4.45;;;-3.10;65.80;;;;;;5069794;28;20025;-73
2024/01/29 05:26:13;;;;;;;3.75;2.17;;;-3.10;65.90;;;;;;5052830;28;20047;-73
2024/01/29 05:28:39;;;;;;;4.25;1.92;;;-3.10;65.80;;;;;;5073078;28;20082;-73
2024/01/29 05:31:05;;;;;;;3.50;1.77;;;-3.20;65.90;;;;;;5072665;28;20045;-74
2024/01/29 05:33:32;;;;;;;5.28;2.92;;;-3.20;66.00;;;;;;5073489;28;20033;-74
2024/01/29 05:35:58;;;;;;;6.57;3.63;;;-3.30;66.20;;;;;;5074969;28;20340;-73
2024/01/29 05:38:24;;;;;;;4.85;4.07;;;-3.20;66.10;;;;;;5074561;28;20020;-74
2024/01/29 05:40:50;;;;;;;5.28;2.38;;;-3.20;65.90;;;;;;5072338;28;20036;-73
2024/01/29 05:43:16;;;;;;;4.68;2.13;;;-3.30;65.80;;;;;;5056481;28;20032;-73
2024/01/29 05:45:42;;;;;;;5.68;3.72;;;-3.30;66.20;;;;;;5074347;28;20048;-73
2024/01/29 05:48:09;;;;;;;8.15;3.92;;;-3.30;66.50;;;;;;5074284;28;20469;-74
2024/01/29 05:50:35;;;;;;;3.33;1.65;;;-3.30;66.60;;;;;;5072184;28;20044;-74
2024/01/29 05:53:01;;;;;;;5.22;2.47;;;-3.30;66.90;;;;;;5074504;28;20036;-73
2024/01/29 05:55:27;;;;;;;;;;;-3.30;67.10;;;;;;5075261;28;20448;-73
2024/01/29 05:57:53;;;;;;;4.10;1.75;;;-3.30;66.90;;;;;;5074396;28;19916;-73
2024/01/29 06:00:20;;;;;;;;;;;-3.30;66.70;;;;;;5072635;28;20452;-73
2024/01/29 06:02:48;;;;;;;9.73;2.33;;;-3.40;66.90;;;;;;5073028;28;20012;-73
2024/01/29 06:05:14;;;;;;;5.60;3.47;;;-3.40;67.00;;;;;;5072775;28;20849;-73
2024/01/29 06:07:41;;;;;;;5.18;3.00;;;-3.30;66.90;;;;;;5056072;28;20032;-73
2024/01/29 06:10:25;;;;;;;9.40;2.92;;;-3.30;67.00;;;;;;5071909;28;20044;-73
2024/01/29 06:12:51;;;;;;;4.95;2.53;;;-3.30;66.90;;;;;;5073991;28;20421;-73
2024/01/29 06:15:17;;;;;;;;;;;-3.30;67.00;;;;;;5073109;28;20048;-74
2024/01/29 06:17:43;;;;;;;3.30;2.65;;;-3.30;67.00;;;;;;5055847;28;19912;-73
2024/01/29 06:20:12;;;;;;;20.30;4.22;;;-3.30;67.00;;;;;;5071874;28;20081;-73
2024/01/29 06:22:38;;;;;;;7.53;2.90;;;-3.40;66.10;;;;;;5072606;28;20048;-74
2024/01/29 06:25:06;;;;;;;7.30;3.60;;;-3.40;66.20;;;;;;5073834;28;20032;-74
2024/01/29 06:27:32;;;;;;;11.32;3.50;;;-3.40;66.70;;;;;;5072384;28;20028;-73
2024/01/29 06:29:58;;;;;;;14.38;7.55;;;-3.30;66.80;;;;;;5072172;28;20047;-73
2024/01/29 06:32:24;;;;;;;9.57;4.43;;;-3.20;66.60;;;;;;5072996;28;20036;-73
2024/01/29 06:34:56;;;;;;;13.20;6.55;;;-3.30;66.70;;;;;;5072328;28;20036;-74
2024/01/29 06:37:23;;;;;;;11.40;6.07;;;-3.20;66.70;;;;;;5073263;28;20039;-74
2024/01/29 06:39:50;;;;;;;16.67;6.25;;;-3.30;66.40;;;;;;5055645;28;20041;-73
2024/01/29 06:42:16;;;;;;;5.30;2.20;;;-3.20;66.70;;;;;;5054656;28;20515;-74
2024/01/29 06:44:42;;;;;;;6.93;4.05;;;-3.20;66.70;;;;;;5073538;28;20036;-73
2024/01/29 06:47:08;;;;;;;6.10;2.83;;;-3.20;66.70;;;;;;5073088;28;20043;-73
2024/01/29 06:49:35;;;;;;;;;;;-3.20;66.50;;;;;;5072693;28;20131;-74
2024/01/29 06:52:01;;;;;;;5.55;4.32;;;-3.10;66.40;;;;;;5071221;28;19924;-73
2024/01/29 06:54:27;;;;;;;;;;;-3.10;66.10;;;;;;5072424;28;20048;-73
2024/01/29 06:56:53;;;;;;;6.00;4.45;;;-3.00;66.00;;;;;;5073076;28;20280;-74
2024/01/29 06:59:20;;;;;;;7.13;3.70;;;-2.90;65.80;;;;;;5071732;28;20035;-74
2024/01/29 07:01:46;;;;;;;10.93;4.32;;;-2.90;65.90;;;;;;5071099;28;20547;-73
2024/01/29 07:04:12;;;;;;;10.73;7.00;;;-2.80;65.80;;;;;;5073377;28;20032;-74
2024/01/29 07:06:38;;;;;;;10.27;6.28;;;-2.80;65.70;;;;;;5071875;28;20366;-73
2024/01/29 07:09:04;;;;;;;15.48;8.85;;;-2.70;65.90;;;;;;5072878;28;20032;-74
2024/01/29 07:11:30;;;;;;;13.82;7.70;;;-2.70;66.10;;;;;;5070803;28;20049;-73
2024/01/29 07:13:56;;;;;;;12.20;7.75;;;-2.60;66.00;;;;;;5071746;28;20497;-73
2024/01/29 07:16:22;;;;;;;9.55;7.05;;;-2.60;66.10;;;;;;5072877;28;20469;-74
2024/01/29 07:18:48;;;;;;;9.27;4.50;;;-2.60;66.40;;;;;;5072615;28;20064;-73
2024/01/29 07:21:14;;;;;;;5.65;3.83;;;-2.60;66.90;;;;;;5071654;28;20066;-73
2024/01/29 07:23:40;;;;;;;9.57;5.63;;;-2.50;66.90;;;;;;5071459;28;20103;-73
2024/01/29 07:26:07;;;;;;;5.72;3.50;;;-2.40;66.80;;;;;;5054552;28;20043;-73
2024/01/29 07:28:33;;;;;;;11.60;4.95;;;-2.30;67.10;;;;;;5071187;28;20517;-74
2024/01/29 07:30:59;;;;;;;7.90;4.47;;;-2.20;66.90;;;;;;5070074;28;20360;-73
2024/01/29 07:33:25;;;;;;;8.52;5.28;;;-2.20;67.20;;;;;;5072593;28;20029;-73
2024/01/29 07:35:51;;;;;;;6.72;4.88;;;-2.20;67.40;;;;;;5072076;28;20039;-73
2024/01/29 07:38:17;;;;;;;19.80;10.45;;;-2.10;67.50;;;;;;5072229;28;20047;-74
2024/01/29 07:40:43;;;;;;;20.83;10.25;;;-2.10;67.70;;;;;;5071376;28;20047;-75
2024/01/29 07:43:09;;;;;;;18.70;9.38;;;-2.00;67.80;;;;;;5070959;28;20162;-73
2024/01/29 07:45:36;;;;;;;11.10;6.00;;;-2.00;67.70;;;;;;5072245;28;20078;-74
2024/01/29 07:48:04;;;;;;;12.32;6.22;;;-1.90;67.70;;;;;;5070884;28;20393;-73
2024/01/29 07:50:31;;;;;;;9.02;4.72;;;-1.90;67.70;;;;;;5053063;28;20044;-73
2024/01/29 07:52:57;;;;;;;11.98;6.53;;;-1.90;67.50;;;;;;5072052;28;20032;-74
2024/01/29 07:55:23;;;;;;;10.93;8.32;;;-1.80;67.70;;;;;;5070658;28;20098;-74
2024/01/29 07:57:50;;;;;;;13.80;9.15;;;-1.70;67.90;;;;;;5072034;28;20024;-73
2024/01/29 08:00:16;;;;;;;15.88;7.00;;;-1.60;68.70;;;;;;5069877;28;20485;-74
2024/01/29 08:02:42;;;;;;;11.15;7.13;;;-1.60;68.40;;;;;;5053852;28;20028;-73
2024/01/29 08:05:09;;;;;;;7.97;3.33;;;-1.50;69.00;;;;;;5071732;28;20041;-73
2024/01/29 08:07:35;;;;;;;10.10;5.90;;;-1.50;69.50;;;;;;5072090;28;20025;-74
2024/01/29 08:10:01;;;;;;;6.78;3.15;;;-1.30;69.00;;;;;;5070299;28;20124;-73
2024/01/29 08:12:27;;;;;;;14.85;6.55;;;-1.30;69.50;;;;;;5069881;28;20028;-74
2024/01/29 08:14:54;;;;;;;5.47;4.03;;;-1.20;70.00;;;;;;5070521;28;20036;-74
2024/01/29 08:17:20;;;;;;;;;;;-1.20;70.30;;;;;;5071792;28;20104;-73
2024/01/29 08:19:46;;;;;;;10.32;5.40;;;-1.10;70.40;;;;;;5070394;28;19928;-73
2024/01/29 08:22:12;;;;;;;16.73;9.07;;;-1.00;69.40;;;;;;5070872;28;20053;-73
2024/01/29 08:24:39;;;;;;;3.55;2.50;;;-0.90;69.40;;;;;;5070273;28;20112;-73
2024/01/29 08:27:05;;;;;;;11.93;7.00;;;-0.80;68.80;;;;;;5071304;28;20036;-74
2024/01/29 08:29:31;;;;;;;7.13;4.93;;;-0.70;68.70;;;;;;5069923;28;20487;-73
2024/01/29 08:31:58;;;;;;;7.35;4.53;;;-0.60;68.90;;;;;;5071139;28;20029;-73
2024/01/29 08:34:24;;;;;;;;;;;-0.50;68.20;;;;;;5070941;28;20449;-73
2024/01/29 08:36:51;;;;;;;7.95;5.82;;;-0.40;69.10;;;;;;5070012;28;20718;-74
2024/01/29 08:39:17;;;;;;;8.75;3.45;;;-0.30;68.60;;;;;;5070008;28;20037;-73
2024/01/29 08:41:43;;;;;;;11.38;5.75;;;-0.20;69.10;;;;;;5052451;28;20060;-73
2024/01/29 08:44:10;;;;;;;14.25;8.52;;;-0.10;68.90;;;;;;5071346;28;20036;-73
2024/01/29 08:46:36;;;;;;;9.45;5.80;;;0.10;68.90;;;;;;5071533;28;20037;-73
2024/01/29 08:49:03;;;;;;;7.90;3.90;;;0.30;68.70;;;;;;5069659;28;20029;-73
2024/01/29 08:51:29;;;;;;;7.72;4.13;;;0.30;68.10;;;;;;5069159;28;20127;-73
2024/01/29 08:53:58;;;;;;;5.57;3.17;;;0.50;67.90;;;;;;5071265;28;20032;-72
2024/01/29 08:56:24;;;;;;;7.55;5.47;;;0.70;67.80;;;;;;5053442;28;20048;-74
2024/01/29 08:58:50;;;;;;;7.18;5.55;;;1.30;67.10;;;;;;5071351;28;20028;-73
2024/01/29 09:01:16;;;;;;;6.00;3.65;;;2.70;64.40;;;;;;5068992;28;20057;-73
2024/01/29 09:03:42;;;;;;;10.90;6.10;;;3.40;61.60;;;;;;5071463;28;20066;-73
2024/01/29 09:06:09;;;;;;;10.10;5.93;;;4.70;58.90;;;;;;5071071;28;20483;-73
2024/01/29 09:08:35;;;;;;;13.10;7.50;;;5.40;55.50;;;;;;5053395;28;20497;-73
2024/01/29 09:11:01;;;;;;;17.38;6.55;;;6.10;54.70;;;;;;5070388;28;20049;-73
2024/01/29 09:13:27;;;;;;;13.70;6.45;;;7.20;51.90;;;;;;5053485;28;20024;-73
2024/01/29 09:15:53;;;;;;;16.52;7.25;;;8.20;49.20;;;;;;5052770;28;20047;-73
2024/01/29 09:18:19;;;;;;;10.90;5.57;;;8.90;47.50;;;;;;5052847;28;20056;-73
2024/01/29 09:20:45;;;;;;;11.75;4.82;;;9.30;46.30;;;;;;5051981;28;20040;-73
2024/01/29 09:23:11;;;;;;;5.68;4.15;;;8.90;46.20;;;;;;5071057;28;20331;-73
2024/01/29 09:25:37;;;;;;;4.95;2.83;;;8.50;46.60;;;;;;5069676;28;20120;-73
2024/01/29 09:28:04;;;;;;;9.63;2.35;;;8.80;46.60;;;;;;5070681;28;20051;-73
2024/01/29 09:30:30;;;;;;;5.68;3.50;;;9.30;43.90;;;;;;5069888;28;20041;-73
2024/01/29 09:32:56;;;;;;;2.88;1.98;;;9.60;43.70;;;;;;5069603;28;20021;-73
2024/01/29 09:35:22;;;;;;;7.82;6.28;;;9.80;43.30;;;;;;5069480;28;20048;-73
2024/01/29 09:37:48;;;;;;;4.95;3.15;;;9.50;41.80;;;;;;5069492;28;20020;-73
2024/01/29 09:40:15;;;;;;;1.98;1.67;;;9.30;44.00;;;;;;5068882;28;20433;-73
2024/01/29 09:43:06;;;;;;;5.30;3.10;;;10.00;43.90;;;;;;5069547;28;20032;-73
2024/01/29 09:45:35;;;;;;;2.65;2.00;;;10.60;41.70;;;;;;5070887;28;20060;-72
2024/01/29 09:48:03;;;;;;;3.42;2.55;;;11.20;40.10;;;;;;5069212;28;20036;-73
2024/01/29 09:50:32;;;;;;;5.53;2.55;;;10.60;39.40;;;;;;5069626;28;20032;-73
2024/01/29 09:53:00;;;;;;;7.40;4.63;;;10.00;41.30;;;;;;5070636;28;20078;-73
2024/01/29 09:55:27;;;;;;;2.63;2.03;;;9.90;42.10;;;;;;5052583;28;20094;-72
2024/01/29 09:57:53;;;;;;;3.67;2.67;;;9.60;41.50;;;;;;5069385;28;20103;-73
2024/01/29 10:00:19;;;;;;;13.10;4.15;;;9.60;41.80;;;;;;5051719;28;20040;-72
2024/01/29 10:02:48;;;;;;;1.60;1.38;;;10.00;41.10;;;;;;5069322;28;20043;-73
2024/01/29 10:05:14;;;;;;;4.50;2.50;;;9.70;41.20;;;;;;5068838;28;20438;-73
2024/01/29 10:07:44;;;;;;;9.90;3.10;;;9.40;42.60;;;;;;5070588;28;20433;-73
2024/01/29 10:10:10;;;;;;;4.15;2.60;;;9.40;43.10;;;;;;5069573;28;20048;-73
2024/01/29 10:12:36;;;;;;;;;;;8.90;41.20;;;;;;5069994;28;20028;-72
2024/01/29 10:15:04;;;;;;;4.35;3.30;;;9.00;42.70;;;;;;5055830;28;20437;-72
2024/01/29 10:17:32;;;;;;;4.72;3.25;;;9.40;41.80;;;;;;5072351;28;20037;-72
2024/01/29 10:19:58;;;;;;;1.38;0.98;;;9.70;40.90;;;;;;5072409;28;20374;-73
2024/01/29 10:22:25;;;;;;;6.82;2.38;;;10.40;39.80;;;;;;5055086;28;20055;-72
2024/01/29 10:25:13;;;;;;;4.18;3.60;;;11.40;38.40;;;;;;5055888;28;20048;-73
2024/01/29 10:27:40;;;;;;;3.05;2.50;;;11.40;37.50;;;;;;5072555;28;20075;-73
2024/01/29 10:30:07;;;;;;;3.58;2.08;;;11.70;37.40;;;;;;5054940;28;20043;-73
2024/01/29 10:32:35;;;;;;;5.03;1.92;;;13.00;35.40;;;;;;5055846;28;20424;-73
2024/01/29 10:35:01;;;;;;;5.63;1.88;;;12.50;35.40;;;;;;5055395;28;20036;-73
2024/01/29 10:37:27;;;;;;;4.20;3.53;;;12.00;37.10;;;;;;5073575;28;20048;-73
2024/01/29 10:39:54;;;;;;;;;;;11.90;37.30;;;;;;5072762;28;20044;-72
2024/01/29 10:42:21;;;;;;;4.13;2.13;;;12.40;36.10;;;;;;5071569;28;19920;-73
2024/01/29 10:44:49;;;;;;;4.10;1.80;;;12.20;36.00;;;;;;5072209;28;20086;-73
2024/01/29 10:47:39;;;;;;;2.67;1.67;;;11.90;36.60;;;;;;5073241;28;20047;-73
2024/01/29 10:50:06;;;;;;;1.42;1.13;;;11.70;36.90;;;;;;5071498;28;20033;-72
2024/01/29 10:52:33;;;;;;;5.53;4.72;;;11.70;36.00;;;;;;5072271;28;20362;-72
2024/01/29 10:54:59;;;;;;;2.13;1.33;;;12.00;35.20;;;;;;5071983;28;20397;-73
2024/01/29 10:57:26;;;;;;;;;;;12.30;34.30;;;;;;5072545;28;20033;-73
2024/01/29 10:59:52;;;;;;;3.10;2.28;;;12.00;35.00;;;;;;5071813;28;19920;-71
2024/01/29 11:02:19;;;;;;;2.45;1.20;;;11.90;35.40;;;;;;5071146;28;20037;-72
2024/01/29 11:04:45;;;;;;;2.65;2.13;;;11.90;36.20;;;;;;5071936;28;20032;-71
2024/01/29 11:07:31;;;;;;;1.23;0.85;;;11.90;35.80;;;;;;5071706;28;20048;-72
2024/01/29 11:10:19;;;;;;;6.10;4.15;;;11.50;35.40;;;;;;5071599;28;20036;-72
2024/01/29 11:12:50;;;;;;;1.27;0.63;;;11.70;35.20;;;;;;5071243;28;20094;-72
2024/01/29 11:15:16;;;;;;;1.55;1.27;;;12.50;34.10;;;;;;5071622;28;20029;-71
2024/01/29 11:17:42;;;;;;;1.65;1.08;;;12.70;33.50;;;;;;5071272;28;20509;-71
2024/01/29 11:20:12;;;;;;;6.60;2.58;;;12.80;34.30;;;;;;5070813;28;20051;-72
2024/01/29 11:22:42;;;;;;;3.40;2.55;;;13.80;33.20;;;;;;5071614;28;20051;-71
2024/01/29 11:25:16;;;;;;;1.65;0.82;;;14.90;30.70;;;;;;5070282;28;20051;-71
2024/01/29 11:27:45;;;;;;;2.08;1.50;;;15.50;29.00;;;;;;5071485;28;20028;-73
2024/01/29 11:30:31;;;;;;;3.78;2.40;;;15.80;28.00;;;;;;5070255;28;20041;-72
2024/01/29 11:33:14;;;;;;;2.63;1.55;;;17.20;26.60;;;;;;5071148;28;20033;-72
2024/01/29 11:35:42;;;;;;;4.82;1.15;;;17.20;26.00;;;;;;5072546;28;20038;-72
2024/01/29 11:38:11;;;;;;;1.98;1.65;;;16.90;26.90;;;;;;5054330;28;20062;-72
2024/01/29 11:40:43;;;;;;;3.58;1.65;;;16.40;27.10;;;;;;5070387;28;20052;-71
2024/01/29 11:43:28;;;;;;;17.92;2.22;;;16.20;27.70;;;;;;5071230;28;20056;-72
2024/01/29 11:45:54;;;;;;;2.78;1.38;;;16.70;27.50;;;;;;5054228;28;20029;-72
2024/01/29 11:51:08;;;;;;;1.08;0.85;;;16.70;27.20;;;;;;5071375;28;20067;-73
2024/01/29 11:53:35;;;;;;;1.65;1.25;;;16.70;27.60;;;;;;5070880;28;20025;-72
2024/01/29 11:56:01;;;;;;;2.42;1.17;;;16.00;28.00;;;;;;5070662;28;20037;-72
2024/01/29 11:58:27;;;;;;;2.20;0.93;;;16.00;28.40;;;;;;5070688;28;20086;-72
2024/01/29 12:00:53;;;;;;;2.22;1.02;;;16.90;27.70;;;;;;5070874;28;20040;-72
2024/01/29 12:03:38;;;;;;;2.25;1.55;;;17.60;26.30;;;;;;5070751;28;20033;-71
2024/01/29 12:06:05;;;;;;;2.15;1.20;;;18.30;24.40;;;;;;5053811;28;20028;-72
2024/01/29 12:08:31;;;;;;;2.35;1.20;;;17.90;24.60;;;;;;5070623;28;20119;-72
2024/01/29 12:11:01;;;;;;;3.25;1.83;;;17.40;25.90;;;;;;5052871;28;20045;-73
2024/01/29 12:13:28;;;;;;;2.33;1.05;;;16.60;25.60;;;;;;5070914;28;20486;-72
2024/01/29 12:15:58;;;;;;;3.45;1.33;;;16.50;27.00;;;;;;5070370;28;20478;-72
2024/01/29 12:18:26;;;;;;;3.03;1.10;;;16.70;26.20;;;;;;5053616;28;20028;-73
2024/01/29 12:20:53;;;;;;;1.35;0.75;;;16.30;26.80;;;;;;5069293;28;20044;-71
2024/01/29 12:26:05;;;;;;;1.90;1.13;;;15.00;27.90;;;;;;5070607;28;20043;-72
2024/01/29 12:28:31;;;;;;;2.47;1.20;;;14.60;28.90;;;;;;5071389;28;20394;-72
2024/01/29 12:31:17;;;;;;;3.03;1.08;;;14.80;29.00;;;;;;5070606;28;20048;-72
2024/01/29 12:33:47;;;;;;;1.50;1.07;;;15.20;29.10;;;;;;5071565;28;20029;-71
2024/01/29 12:36:15;;;;;;;0.98;0.40;;;15.60;27.30;;;;;;5069654;28;20033;-72
2024/01/29 12:38:51;;;;;;;1.73;1.30;;;16.70;26.60;;;;;;5071439;28;20592;-72
2024/01/29 12:41:18;;;;;;;1.48;1.02;;;17.30;25.00;;;;;;5052711;28;20056;-73
2024/01/29 12:43:44;;;;;;;4.20;1.67;;;16.70;25.90;;;;;;5070055;28;20020;-73
2024/01/29 12:46:12;;;;;;;0.77;0.60;;;16.40;26.60;;;;;;5069967;28;20044;-72
2024/01/29 12:48:39;;;;;;;1.05;0.75;;;16.40;26.60;;;;;;5069898;28;20033;-73
2024/01/29 12:51:05;;;;;;;0.70;0.55;;;16.40;26.50;;;;;;5068912;28;20111;-71
2024/01/29 12:53:32;;;;;;;0.70;0.70;;;16.60;26.30;;;;;;5069969;28;20028;-72
2024/01/29 12:55:58;;;;;;;0.38;0.38;;;16.90;26.50;;;;;;5069486;28;20029;-73